Discovery — 3FII9 — position and weather

sailwx.info

Track history (hours):
 
Tides and Currents Weather Stations Pressure Air Temp Water Temp Dewpoint Dewpoint Depression Visibility Wind Speed Wind Dir Waves Ship Positions

Discovery

Operator: V Ships Leisure SAM

Last reported at 2018-May-01 00:43 UTC. Time now 2018-Jun-17 21:31 UTC.
Position N 33°29' E 129°20'.
Warning: this ship's position is 47 days out of date.

Length 177 m; draft 10.2 m.

Type: Cargo ship. MMSI: 353389000.

Date/timePositionNaut miles runAvg speedWind from/ knotsBaromVisibWave heightAir tempDewpointWater temp
2018-May-01 00:43N 33°29' E 129°20'314.1
2018-May-01 00:30N 33°32' E 129°21'714.4
2018-May-01 00:00N 33°39' E 129°24'914.5
2018-Apr-30 23:24N 33°47' E 129°28'614.7
2018-Apr-30 23:00N 33°52' E 129°31'714.5
2018-Apr-30 22:30N 33°57' E 129°37'714.6
2018-Apr-30 22:00N 34°01' E 129°44'815.2
2018-Apr-30 21:30N 34°03' E 129°53'815.2
2018-Apr-30 21:00N 34°06' E 130°02'715.1
2018-Apr-30 20:30N 34°08' E 130°10'715.0
2018-Apr-30 20:00N 34°13' E 130°18'714.9
2018-Apr-30 19:31N 34°17' E 130°25'714.7
2018-Apr-30 19:00N 34°22' E 130°32'714.7
2018-Apr-30 18:30N 34°26' E 130°39'714.2
2018-Apr-30 18:00N 34°31' E 130°46'714.1
2018-Apr-30 17:30N 34°34' E 130°54'  
Track history (hours):
 
Tides and Currents Weather Stations Pressure Air Temp Water Temp Dewpoint Dewpoint Depression Visibility Wind Speed Wind Dir Waves Ship Positions

Discovery

Operator: V Ships Leisure SAM

Last reported at 2018-May-01 00:43 UTC. Time now 2018-Jun-17 21:31 UTC.
Position N 33°29' E 129°20'.
Warning: this ship's position is 47 days out of date.

Length 177 m; draft 10.2 m.

Type: Cargo ship. MMSI: 353389000.

Date/timePositionNaut miles runAvg speedWind from/ knotsBaromVisibWave heightAir tempDewpointWater temp
2018-May-01 00:43N 33°29' E 129°20'314.1
2018-May-01 00:30N 33°32' E 129°21'714.4
2018-May-01 00:00N 33°39' E 129°24'914.5
2018-Apr-30 23:24N 33°47' E 129°28'614.7
2018-Apr-30 23:00N 33°52' E 129°31'714.5
2018-Apr-30 22:30N 33°57' E 129°37'714.6
2018-Apr-30 22:00N 34°01' E 129°44'815.2
2018-Apr-30 21:30N 34°03' E 129°53'815.2
2018-Apr-30 21:00N 34°06' E 130°02'715.1
2018-Apr-30 20:30N 34°08' E 130°10'715.0
2018-Apr-30 20:00N 34°13' E 130°18'714.9
2018-Apr-30 19:31N 34°17' E 130°25'714.7
2018-Apr-30 19:00N 34°22' E 130°32'714.7
2018-Apr-30 18:30N 34°26' E 130°39'714.2
2018-Apr-30 18:00N 34°31' E 130°46'714.1
2018-Apr-30 17:30N 34°34' E 130°54'  

Dump ship's entire track history